Upstream stations:
Downstream station:
SHEF ID: CHNK1 Cheney Lake
STATION TYPE: RESERVOIR
Flood Pool: Bottom = 1421.60, Top = 1429.00
PRECIP ELEVATION STORAGE INFLOW RELEASE WIND-DIRWIND-SPEED VOLTAGE
in ft ac-ft cfs cfs deg mph volt
Ccp-Rev Ccp-Rev Ccp-Rev Rev-Regi Rev-Regi Ccp-Rev Ccp-Rev Ccp-Rev
(US/Central)
01/29 00:00 0.00 1420.28 154784 103 0 176.50 9.00 13.15
01/29 01:00 0.00 1420.28 154784 14 0 177.90 7.90 13.15
01/29 02:00 0.00 1420.29 154876 14 0 192.40 9.40 13.16
01/29 03:00 0.00 1420.29 154876 14 0 196.50 13.60 13.16
01/29 04:00 0.00 1420.28 154784 14 0 189.00 12.60 13.15
01/29 05:00 0.00 1420.27 154693 0 0 179.50 11.60 13.16
01/29 06:00 0.00 1420.27 154693 0 0 177.90 12.10 13.15
01/29 07:00 0.00 1420.26 154601 15 0 178.20 14.70 13.15
01/29 08:00 0.00 1420.24 154418 60 0 ---- ---- 13.14
01/29 09:00 0.00 1420.25 154509 60 0 ---- ---- 13.13
01/29 10:00 0.00 1420.28 154784 60 0 ---- ---- 13.15
01/29 11:00 0.00 1420.27 154693 60 0 ---- ---- 13.16
01/29 12:00 0.00 1420.27 154693 45 0 ---- ---- 13.16
01/29 13:00 0.00 1420.25 154509 0 0 ---- ---- 13.16
01/29 14:00 0.00 1420.27 154693 0 0 ---- ---- 13.16
01/29 15:00 0.00 1420.28 154784 0 0 ---- ---- 13.16
01/29 16:00 0.00 1420.29 154876 0 0 ---- ---- 13.16
01/29 17:00 0.00 1420.29 154876 0 0 ---- ---- 13.16
01/29 18:00 0.00 1420.29 154876 0 0 ---- ---- 13.16
01/29 19:00 0.00 1420.29 154876 0 0 ---- ---- 13.16
01/29 20:00 0.00 1420.27 154693 0 0 ---- ---- 13.16
01/29 21:00 ---- ---- ---- ---- ---- ---- ---- ----
01/29 22:00 ---- ---- ---- ---- ---- ---- ---- ----
01/29 23:00 ---- ---- ---- ---- ---- ---- ---- ----